sensor_id;sensor_type;location;lat;lon;timestamp;P1;durP1;ratioP1;P2;durP2;ratioP2
78416;SDS011;67715;46.170;6.140;2023-04-03T00:00:43;12.93;;;8.27;;
78416;SDS011;67715;46.170;6.140;2023-04-03T00:03:09;10.82;;;8.45;;
78416;SDS011;67715;46.170;6.140;2023-04-03T00:05:34;10.93;;;7.72;;
78416;SDS011;67715;46.170;6.140;2023-04-03T00:08:00;12.50;;;8.55;;
78416;SDS011;67715;46.170;6.140;2023-04-03T00:10:27;10.48;;;7.68;;
78416;SDS011;67715;46.170;6.140;2023-04-03T00:12:52;11.52;;;8.75;;
78416;SDS011;67715;46.170;6.140;2023-04-03T00:15:18;13.80;;;8.97;;
78416;SDS011;67715;46.170;6.140;2023-04-03T00:17:43;10.20;;;7.40;;
78416;SDS011;67715;46.170;6.140;2023-04-03T00:20:08;11.57;;;7.55;;
78416;SDS011;67715;46.170;6.140;2023-04-03T00:22:34;9.65;;;7.47;;
78416;SDS011;67715;46.170;6.140;2023-04-03T00:24:59;11.27;;;6.97;;
78416;SDS011;67715;46.170;6.140;2023-04-03T00:27:25;8.07;;;6.80;;
78416;SDS011;67715;46.170;6.140;2023-04-03T00:29:50;8.90;;;6.47;;
78416;SDS011;67715;46.170;6.140;2023-04-03T00:32:15;8.53;;;6.00;;
78416;SDS011;67715;46.170;6.140;2023-04-03T00:34:41;8.83;;;6.30;;
78416;SDS011;67715;46.170;6.140;2023-04-03T00:37:06;7.70;;;5.70;;
78416;SDS011;67715;46.170;6.140;2023-04-03T00:39:31;8.30;;;6.10;;
78416;SDS011;67715;46.170;6.140;2023-04-03T00:41:57;8.75;;;6.30;;
78416;SDS011;67715;46.170;6.140;2023-04-03T00:45:21;10.00;;;6.13;;
78416;SDS011;67715;46.170;6.140;2023-04-03T00:47:09;8.40;;;5.93;;
78416;SDS011;67715;46.170;6.140;2023-04-03T00:49:36;8.80;;;6.38;;
78416;SDS011;67715;46.170;6.140;2023-04-03T00:52:02;7.97;;;6.05;;
78416;SDS011;67715;46.170;6.140;2023-04-03T00:54:27;9.93;;;6.30;;
78416;SDS011;67715;46.170;6.140;2023-04-03T00:56:53;9.10;;;6.33;;
78416;SDS011;67715;46.170;6.140;2023-04-03T00:59:21;9.45;;;5.72;;
78416;SDS011;67715;46.170;6.140;2023-04-03T01:01:51;8.60;;;6.53;;
78416;SDS011;67715;46.170;6.140;2023-04-03T01:04:40;9.95;;;6.90;;
78416;SDS011;67715;46.170;6.140;2023-04-03T01:07:08;8.25;;;6.10;;
78416;SDS011;67715;46.170;6.140;2023-04-03T01:09:44;10.52;;;6.57;;
78416;SDS011;67715;46.170;6.140;2023-04-03T01:14:46;9.80;;;6.30;;
78416;SDS011;67715;46.170;6.140;2023-04-03T01:17:32;9.38;;;6.80;;
78416;SDS011;67715;46.170;6.140;2023-04-03T01:25:41;9.70;;;6.47;;
78416;SDS011;67715;46.170;6.140;2023-04-03T01:28:10;8.32;;;6.20;;
78416;SDS011;67715;46.170;6.140;2023-04-03T01:30:43;10.48;;;6.85;;
78416;SDS011;67715;46.170;6.140;2023-04-03T01:33:13;10.27;;;6.78;;
78416;SDS011;67715;46.170;6.140;2023-04-03T01:35:39;10.05;;;6.55;;
78416;SDS011;67715;46.170;6.140;2023-04-03T01:38:04;10.90;;;7.50;;
78416;SDS011;67715;46.170;6.140;2023-04-03T01:40:30;9.20;;;6.93;;
78416;SDS011;67715;46.170;6.140;2023-04-03T01:42:55;9.97;;;7.73;;
78416;SDS011;67715;46.170;6.140;2023-04-03T01:45:20;10.47;;;7.33;;
78416;SDS011;67715;46.170;6.140;2023-04-03T01:47:46;9.27;;;6.88;;
78416;SDS011;67715;46.170;6.140;2023-04-03T01:50:11;10.30;;;7.10;;
78416;SDS011;67715;46.170;6.140;2023-04-03T01:52:36;9.90;;;6.50;;
78416;SDS011;67715;46.170;6.140;2023-04-03T01:55:02;9.43;;;6.87;;
78416;SDS011;67715;46.170;6.140;2023-04-03T01:57:27;9.65;;;6.72;;
78416;SDS011;67715;46.170;6.140;2023-04-03T01:59:52;9.90;;;7.53;;
78416;SDS011;67715;46.170;6.140;2023-04-03T02:02:18;10.23;;;7.65;;
78416;SDS011;67715;46.170;6.140;2023-04-03T02:04:45;8.85;;;6.55;;
78416;SDS011;67715;46.170;6.140;2023-04-03T02:07:10;11.73;;;8.10;;
78416;SDS011;67715;46.170;6.140;2023-04-03T02:09:35;10.00;;;7.37;;
78416;SDS011;67715;46.170;6.140;2023-04-03T02:12:01;9.67;;;7.23;;
78416;SDS011;67715;46.170;6.140;2023-04-03T02:14:26;11.80;;;7.67;;
78416;SDS011;67715;46.170;6.140;2023-04-03T02:16:52;13.18;;;8.07;;
78416;SDS011;67715;46.170;6.140;2023-04-03T02:19:17;13.15;;;8.35;;
78416;SDS011;67715;46.170;6.140;2023-04-03T02:21:43;10.40;;;7.20;;
78416;SDS011;67715;46.170;6.140;2023-04-03T02:24:08;12.20;;;7.70;;
78416;SDS011;67715;46.170;6.140;2023-04-03T02:26:33;11.83;;;7.63;;
78416;SDS011;67715;46.170;6.140;2023-04-03T02:28:59;12.10;;;7.77;;
78416;SDS011;67715;46.170;6.140;2023-04-03T02:31:24;11.27;;;8.17;;
78416;SDS011;67715;46.170;6.140;2023-04-03T02:33:50;12.90;;;7.68;;
78416;SDS011;67715;46.170;6.140;2023-04-03T02:36:15;12.23;;;7.93;;
78416;SDS011;67715;46.170;6.140;2023-04-03T02:38:41;11.98;;;8.45;;
78416;SDS011;67715;46.170;6.140;2023-04-03T02:41:07;11.25;;;7.95;;
78416;SDS011;67715;46.170;6.140;2023-04-03T02:43:34;12.93;;;7.88;;
78416;SDS011;67715;46.170;6.140;2023-04-03T02:45:59;13.10;;;8.07;;
78416;SDS011;67715;46.170;6.140;2023-04-03T02:48:25;13.37;;;7.40;;
78416;SDS011;67715;46.170;6.140;2023-04-03T02:50:51;11.98;;;8.00;;
78416;SDS011;67715;46.170;6.140;2023-04-03T02:53:16;13.57;;;8.05;;
78416;SDS011;67715;46.170;6.140;2023-04-03T02:55:42;12.70;;;7.72;;
78416;SDS011;67715;46.170;6.140;2023-04-03T02:58:07;11.87;;;6.90;;
78416;SDS011;67715;46.170;6.140;2023-04-03T03:00:33;11.60;;;7.65;;
78416;SDS011;67715;46.170;6.140;2023-04-03T03:02:58;12.65;;;7.82;;
78416;SDS011;67715;46.170;6.140;2023-04-03T03:05:24;12.95;;;8.27;;
78416;SDS011;67715;46.170;6.140;2023-04-03T03:07:50;11.20;;;7.70;;
78416;SDS011;67715;46.170;6.140;2023-04-03T03:10:15;11.97;;;7.67;;
78416;SDS011;67715;46.170;6.140;2023-04-03T03:12:41;13.15;;;7.93;;
78416;SDS011;67715;46.170;6.140;2023-04-03T03:15:07;12.45;;;7.43;;
78416;SDS011;67715;46.170;6.140;2023-04-03T03:17:32;12.18;;;7.80;;
78416;SDS011;67715;46.170;6.140;2023-04-03T03:19:57;12.27;;;8.43;;
78416;SDS011;67715;46.170;6.140;2023-04-03T03:22:23;12.80;;;7.30;;
78416;SDS011;67715;46.170;6.140;2023-04-03T03:24:48;12.77;;;7.80;;
78416;SDS011;67715;46.170;6.140;2023-04-03T03:27:13;13.37;;;8.27;;
78416;SDS011;67715;46.170;6.140;2023-04-03T03:29:41;12.85;;;7.95;;
78416;SDS011;67715;46.170;6.140;2023-04-03T03:32:06;14.30;;;8.23;;
78416;SDS011;67715;46.170;6.140;2023-04-03T03:34:31;14.23;;;8.00;;
78416;SDS011;67715;46.170;6.140;2023-04-03T03:36:57;14.77;;;7.90;;
78416;SDS011;67715;46.170;6.140;2023-04-03T03:39:22;12.73;;;7.57;;
78416;SDS011;67715;46.170;6.140;2023-04-03T03:41:47;16.63;;;8.02;;
78416;SDS011;67715;46.170;6.140;2023-04-03T03:44:14;15.63;;;8.07;;
78416;SDS011;67715;46.170;6.140;2023-04-03T03:46:39;14.15;;;7.93;;
78416;SDS011;67715;46.170;6.140;2023-04-03T03:49:05;12.57;;;7.30;;
78416;SDS011;67715;46.170;6.140;2023-04-03T03:51:30;14.15;;;7.63;;
78416;SDS011;67715;46.170;6.140;2023-04-03T03:53:55;13.07;;;6.97;;
78416;SDS011;67715;46.170;6.140;2023-04-03T03:56:21;12.50;;;6.75;;
78416;SDS011;67715;46.170;6.140;2023-04-03T03:58:46;10.48;;;6.35;;
78416;SDS011;67715;46.170;6.140;2023-04-03T04:01:12;10.52;;;6.15;;
78416;SDS011;67715;46.170;6.140;2023-04-03T04:03:37;11.52;;;6.22;;
78416;SDS011;67715;46.170;6.140;2023-04-03T04:06:03;12.13;;;7.37;;
78416;SDS011;67715;46.170;6.140;2023-04-03T04:08:28;9.37;;;6.07;;
78416;SDS011;67715;46.170;6.140;2023-04-03T04:10:53;11.30;;;7.53;;
78416;SDS011;67715;46.170;6.140;2023-04-03T04:13:19;12.45;;;6.97;;
78416;SDS011;67715;46.170;6.140;2023-04-03T04:15:44;13.82;;;7.78;;
78416;SDS011;67715;46.170;6.140;2023-04-03T04:18:10;14.85;;;7.18;;
78416;SDS011;67715;46.170;6.140;2023-04-03T04:20:35;12.55;;;7.30;;
78416;SDS011;67715;46.170;6.140;2023-04-03T04:23:00;15.40;;;8.57;;
78416;SDS011;67715;46.170;6.140;2023-04-03T04:25:26;13.93;;;7.40;;
78416;SDS011;67715;46.170;6.140;2023-04-03T04:27:51;15.10;;;8.10;;
78416;SDS011;67715;46.170;6.140;2023-04-03T04:30:16;13.23;;;7.73;;
78416;SDS011;67715;46.170;6.140;2023-04-03T04:32:42;10.18;;;6.63;;
78416;SDS011;67715;46.170;6.140;2023-04-03T04:35:07;12.38;;;6.60;;
78416;SDS011;67715;46.170;6.140;2023-04-03T04:37:33;10.27;;;6.28;;
78416;SDS011;67715;46.170;6.140;2023-04-03T04:39:58;8.52;;;5.75;;
78416;SDS011;67715;46.170;6.140;2023-04-03T04:42:24;6.68;;;4.50;;
78416;SDS011;67715;46.170;6.140;2023-04-03T04:44:49;7.65;;;4.65;;
78416;SDS011;67715;46.170;6.140;2023-04-03T04:47:15;7.27;;;4.43;;
78416;SDS011;67715;46.170;6.140;2023-04-03T04:49:40;4.93;;;3.30;;
78416;SDS011;67715;46.170;6.140;2023-04-03T04:52:06;5.95;;;3.75;;
78416;SDS011;67715;46.170;6.140;2023-04-03T04:54:31;5.03;;;2.60;;
78416;SDS011;67715;46.170;6.140;2023-04-03T04:56:56;4.35;;;2.58;;
78416;SDS011;67715;46.170;6.140;2023-04-03T04:59:22;2.97;;;2.27;;
78416;SDS011;67715;46.170;6.140;2023-04-03T05:01:47;2.93;;;2.10;;
78416;SDS011;67715;46.170;6.140;2023-04-03T05:04:12;3.23;;;2.13;;
78416;SDS011;67715;46.170;6.140;2023-04-03T05:06:38;2.70;;;2.10;;
78416;SDS011;67715;46.170;6.140;2023-04-03T05:09:03;3.05;;;2.20;;
78416;SDS011;67715;46.170;6.140;2023-04-03T05:11:29;4.57;;;2.08;;
78416;SDS011;67715;46.170;6.140;2023-04-03T05:13:55;3.05;;;1.88;;
78416;SDS011;67715;46.170;6.140;2023-04-03T05:16:20;3.05;;;1.75;;
78416;SDS011;67715;46.170;6.140;2023-04-03T05:18:45;3.10;;;1.80;;
78416;SDS011;67715;46.170;6.140;2023-04-03T05:21:11;3.80;;;1.73;;
78416;SDS011;67715;46.170;6.140;2023-04-03T05:23:36;3.13;;;2.23;;
78416;SDS011;67715;46.170;6.140;2023-04-03T05:26:01;4.50;;;1.80;;
78416;SDS011;67715;46.170;6.140;2023-04-03T05:28:27;2.60;;;1.80;;
78416;SDS011;67715;46.170;6.140;2023-04-03T05:30:53;1.98;;;1.77;;
78416;SDS011;67715;46.170;6.140;2023-04-03T05:33:20;2.58;;;1.60;;
78416;SDS011;67715;46.170;6.140;2023-04-03T05:35:45;2.40;;;1.75;;
78416;SDS011;67715;46.170;6.140;2023-04-03T05:38:11;2.97;;;1.63;;
78416;SDS011;67715;46.170;6.140;2023-04-03T05:40:36;2.00;;;1.47;;
78416;SDS011;67715;46.170;6.140;2023-04-03T05:43:02;2.30;;;1.58;;
78416;SDS011;67715;46.170;6.140;2023-04-03T05:45:27;2.70;;;1.90;;
78416;SDS011;67715;46.170;6.140;2023-04-03T05:47:52;2.97;;;1.80;;
78416;SDS011;67715;46.170;6.140;2023-04-03T05:50:18;2.03;;;1.40;;
78416;SDS011;67715;46.170;6.140;2023-04-03T05:52:44;3.17;;;1.90;;
78416;SDS011;67715;46.170;6.140;2023-04-03T05:55:10;2.17;;;1.73;;
78416;SDS011;67715;46.170;6.140;2023-04-03T05:57:36;3.47;;;1.17;;
78416;SDS011;67715;46.170;6.140;2023-04-03T06:00:03;2.95;;;1.30;;
78416;SDS011;67715;46.170;6.140;2023-04-03T06:02:30;2.45;;;1.40;;
78416;SDS011;67715;46.170;6.140;2023-04-03T06:04:56;2.95;;;1.70;;
78416;SDS011;67715;46.170;6.140;2023-04-03T06:07:22;5.07;;;1.65;;
78416;SDS011;67715;46.170;6.140;2023-04-03T06:09:51;2.47;;;1.65;;
78416;SDS011;67715;46.170;6.140;2023-04-03T06:12:17;2.25;;;1.40;;
78416;SDS011;67715;46.170;6.140;2023-04-03T06:14:43;4.03;;;1.52;;
78416;SDS011;67715;46.170;6.140;2023-04-03T06:17:08;3.00;;;1.50;;
78416;SDS011;67715;46.170;6.140;2023-04-03T06:19:35;2.35;;;1.20;;
78416;SDS011;67715;46.170;6.140;2023-04-03T06:22:00;2.60;;;1.50;;
78416;SDS011;67715;46.170;6.140;2023-04-03T06:24:26;1.85;;;1.20;;
78416;SDS011;67715;46.170;6.140;2023-04-03T06:26:52;2.97;;;1.30;;
78416;SDS011;67715;46.170;6.140;2023-04-03T06:29:18;2.30;;;1.50;;
78416;SDS011;67715;46.170;6.140;2023-04-03T06:31:44;2.97;;;1.63;;
78416;SDS011;67715;46.170;6.140;2023-04-03T06:34:10;3.13;;;1.27;;
78416;SDS011;67715;46.170;6.140;2023-04-03T06:36:36;1.88;;;1.38;;
78416;SDS011;67715;46.170;6.140;2023-04-03T06:39:02;2.53;;;1.60;;
78416;SDS011;67715;46.170;6.140;2023-04-03T06:41:28;2.28;;;1.35;;
78416;SDS011;67715;46.170;6.140;2023-04-03T06:43:53;2.30;;;1.50;;
78416;SDS011;67715;46.170;6.140;2023-04-03T06:46:21;2.90;;;1.58;;
78416;SDS011;67715;46.170;6.140;2023-04-03T06:48:47;2.95;;;1.70;;
78416;SDS011;67715;46.170;6.140;2023-04-03T06:51:23;2.22;;;1.45;;
78416;SDS011;67715;46.170;6.140;2023-04-03T06:53:53;2.88;;;1.95;;
78416;SDS011;67715;46.170;6.140;2023-04-03T06:56:19;5.05;;;1.88;;
78416;SDS011;67715;46.170;6.140;2023-04-03T06:58:45;2.58;;;1.85;;
78416;SDS011;67715;46.170;6.140;2023-04-03T07:01:11;2.13;;;1.50;;
78416;SDS011;67715;46.170;6.140;2023-04-03T07:03:38;2.28;;;1.52;;
78416;SDS011;67715;46.170;6.140;2023-04-03T07:06:04;3.23;;;1.90;;
78416;SDS011;67715;46.170;6.140;2023-04-03T07:08:30;6.50;;;2.05;;
78416;SDS011;67715;46.170;6.140;2023-04-03T07:10:56;3.55;;;2.00;;
78416;SDS011;67715;46.170;6.140;2023-04-03T07:13:21;2.97;;;1.80;;
78416;SDS011;67715;46.170;6.140;2023-04-03T07:15:47;3.37;;;1.70;;
78416;SDS011;67715;46.170;6.140;2023-04-03T07:18:12;3.97;;;1.97;;
78416;SDS011;67715;46.170;6.140;2023-04-03T07:20:38;3.78;;;2.20;;
78416;SDS011;67715;46.170;6.140;2023-04-03T07:23:03;3.63;;;2.80;;
78416;SDS011;67715;46.170;6.140;2023-04-03T07:25:29;2.73;;;1.93;;
78416;SDS011;67715;46.170;6.140;2023-04-03T07:27:54;4.38;;;2.28;;
78416;SDS011;67715;46.170;6.140;2023-04-03T07:30:20;4.45;;;2.13;;
78416;SDS011;67715;46.170;6.140;2023-04-03T07:32:46;3.83;;;2.45;;
78416;SDS011;67715;46.170;6.140;2023-04-03T07:35:11;3.63;;;2.20;;
78416;SDS011;67715;46.170;6.140;2023-04-03T07:37:37;2.70;;;1.80;;
78416;SDS011;67715;46.170;6.140;2023-04-03T07:40:02;2.83;;;1.93;;
78416;SDS011;67715;46.170;6.140;2023-04-03T07:42:29;5.93;;;3.20;;
78416;SDS011;67715;46.170;6.140;2023-04-03T07:44:54;4.07;;;2.55;;
78416;SDS011;67715;46.170;6.140;2023-04-03T07:47:19;3.88;;;2.47;;
78416;SDS011;67715;46.170;6.140;2023-04-03T07:49:46;3.40;;;2.10;;
78416;SDS011;67715;46.170;6.140;2023-04-03T07:52:12;4.70;;;2.72;;
78416;SDS011;67715;46.170;6.140;2023-04-03T07:54:39;4.68;;;2.72;;
78416;SDS011;67715;46.170;6.140;2023-04-03T07:57:05;5.53;;;3.03;;
78416;SDS011;67715;46.170;6.140;2023-04-03T07:59:30;4.05;;;2.25;;
78416;SDS011;67715;46.170;6.140;2023-04-03T08:01:55;5.10;;;3.20;;
78416;SDS011;67715;46.170;6.140;2023-04-03T08:04:21;3.73;;;2.27;;
78416;SDS011;67715;46.170;6.140;2023-04-03T08:06:46;4.20;;;2.80;;
78416;SDS011;67715;46.170;6.140;2023-04-03T08:09:12;4.75;;;3.20;;
78416;SDS011;67715;46.170;6.140;2023-04-03T08:11:39;4.10;;;2.38;;
78416;SDS011;67715;46.170;6.140;2023-04-03T08:14:04;4.35;;;3.00;;
78416;SDS011;67715;46.170;6.140;2023-04-03T08:16:30;3.20;;;2.38;;
78416;SDS011;67715;46.170;6.140;2023-04-03T08:18:55;5.85;;;3.28;;
78416;SDS011;67715;46.170;6.140;2023-04-03T08:21:21;4.87;;;3.40;;
78416;SDS011;67715;46.170;6.140;2023-04-03T08:23:47;4.55;;;2.97;;
78416;SDS011;67715;46.170;6.140;2023-04-03T08:26:15;4.13;;;2.72;;
78416;SDS011;67715;46.170;6.140;2023-04-03T08:28:42;4.72;;;2.72;;
78416;SDS011;67715;46.170;6.140;2023-04-03T08:31:09;3.58;;;3.17;;
78416;SDS011;67715;46.170;6.140;2023-04-03T08:33:36;3.80;;;2.50;;
78416;SDS011;67715;46.170;6.140;2023-04-03T08:36:05;4.88;;;2.83;;
78416;SDS011;67715;46.170;6.140;2023-04-03T08:38:32;3.17;;;2.22;;
78416;SDS011;67715;46.170;6.140;2023-04-03T08:41:04;2.83;;;2.00;;
78416;SDS011;67715;46.170;6.140;2023-04-03T08:43:39;4.97;;;2.63;;
78416;SDS011;67715;46.170;6.140;2023-04-03T08:46:14;2.65;;;2.10;;
78416;SDS011;67715;46.170;6.140;2023-04-03T08:48:42;2.80;;;2.00;;
78416;SDS011;67715;46.170;6.140;2023-04-03T08:51:13;3.22;;;2.17;;
78416;SDS011;67715;46.170;6.140;2023-04-03T08:53:40;4.22;;;2.40;;
78416;SDS011;67715;46.170;6.140;2023-04-03T08:56:08;3.28;;;2.17;;
78416;SDS011;67715;46.170;6.140;2023-04-03T08:58:56;3.67;;;2.15;;
78416;SDS011;67715;46.170;6.140;2023-04-03T09:04:00;3.28;;;2.15;;
78416;SDS011;67715;46.170;6.140;2023-04-03T09:06:26;3.72;;;1.98;;
78416;SDS011;67715;46.170;6.140;2023-04-03T09:17:14;4.75;;;2.80;;
78416;SDS011;67715;46.170;6.140;2023-04-03T09:19:49;3.45;;;2.45;;
78416;SDS011;67715;46.170;6.140;2023-04-03T09:22:27;3.15;;;2.40;;
78416;SDS011;67715;46.170;6.140;2023-04-03T09:27:47;3.53;;;2.38;;
78416;SDS011;67715;46.170;6.140;2023-04-03T09:30:16;3.95;;;2.78;;
78416;SDS011;67715;46.170;6.140;2023-04-03T09:32:46;4.93;;;2.78;;
78416;SDS011;67715;46.170;6.140;2023-04-03T09:35:19;3.63;;;2.30;;
78416;SDS011;67715;46.170;6.140;2023-04-03T09:37:50;3.03;;;2.38;;
78416;SDS011;67715;46.170;6.140;2023-04-03T09:40:34;4.22;;;2.30;;
78416;SDS011;67715;46.170;6.140;2023-04-03T09:45:42;3.42;;;2.10;;
78416;SDS011;67715;46.170;6.140;2023-04-03T09:53:33;3.50;;;2.63;;
78416;SDS011;67715;46.170;6.140;2023-04-03T09:56:04;3.05;;;2.47;;
78416;SDS011;67715;46.170;6.140;2023-04-03T09:59:29;4.40;;;2.78;;
78416;SDS011;67715;46.170;6.140;2023-04-03T10:01:41;4.25;;;2.80;;
78416;SDS011;67715;46.170;6.140;2023-04-03T10:06:41;3.60;;;2.72;;
78416;SDS011;67715;46.170;6.140;2023-04-03T10:14:38;3.58;;;2.30;;
78416;SDS011;67715;46.170;6.140;2023-04-03T10:17:11;3.72;;;2.83;;
78416;SDS011;67715;46.170;6.140;2023-04-03T10:20:04;3.58;;;2.55;;
78416;SDS011;67715;46.170;6.140;2023-04-03T10:22:41;4.68;;;3.13;;
78416;SDS011;67715;46.170;6.140;2023-04-03T10:25:12;6.15;;;2.78;;
78416;SDS011;67715;46.170;6.140;2023-04-03T10:30:37;3.67;;;2.78;;
78416;SDS011;67715;46.170;6.140;2023-04-03T10:36:35;3.70;;;2.42;;
78416;SDS011;67715;46.170;6.140;2023-04-03T10:42:28;5.45;;;2.65;;
78416;SDS011;67715;46.170;6.140;2023-04-03T10:45:14;3.97;;;2.58;;
78416;SDS011;67715;46.170;6.140;2023-04-03T10:50:43;3.45;;;2.67;;
78416;SDS011;67715;46.170;6.140;2023-04-03T10:53:36;3.25;;;2.35;;
78416;SDS011;67715;46.170;6.140;2023-04-03T10:56:08;3.78;;;2.47;;
78416;SDS011;67715;46.170;6.140;2023-04-03T10:58:38;4.90;;;2.63;;
78416;SDS011;67715;46.170;6.140;2023-04-03T11:01:09;3.22;;;2.28;;
78416;SDS011;67715;46.170;6.140;2023-04-03T11:03:42;4.07;;;2.38;;
78416;SDS011;67715;46.170;6.140;2023-04-03T11:06:11;3.70;;;2.75;;
78416;SDS011;67715;46.170;6.140;2023-04-03T11:08:40;3.63;;;2.47;;
78416;SDS011;67715;46.170;6.140;2023-04-03T11:11:11;10.27;;;2.55;;
78416;SDS011;67715;46.170;6.140;2023-04-03T11:13:40;4.22;;;2.13;;
78416;SDS011;67715;46.170;6.140;2023-04-03T11:16:09;2.67;;;2.20;;
78416;SDS011;67715;46.170;6.140;2023-04-03T11:21:12;4.22;;;1.80;;
78416;SDS011;67715;46.170;6.140;2023-04-03T11:23:46;3.38;;;2.30;;
78416;SDS011;67715;46.170;6.140;2023-04-03T11:26:19;2.88;;;1.95;;
78416;SDS011;67715;46.170;6.140;2023-04-03T11:28:46;2.83;;;2.30;;
78416;SDS011;67715;46.170;6.140;2023-04-03T11:31:33;2.70;;;2.10;;
78416;SDS011;67715;46.170;6.140;2023-04-03T11:36:47;3.22;;;1.88;;
78416;SDS011;67715;46.170;6.140;2023-04-03T11:53:00;4.28;;;2.05;;
78416;SDS011;67715;46.170;6.140;2023-04-03T12:23:57;3.17;;;2.40;;
78416;SDS011;67715;46.170;6.140;2023-04-03T12:26:26;3.00;;;2.05;;
78416;SDS011;67715;46.170;6.140;2023-04-03T12:28:53;3.90;;;2.38;;
78416;SDS011;67715;46.170;6.140;2023-04-03T12:31:20;4.00;;;2.28;;
78416;SDS011;67715;46.170;6.140;2023-04-03T12:36:38;3.85;;;2.55;;
78416;SDS011;67715;46.170;6.140;2023-04-03T12:39:17;5.35;;;2.22;;
78416;SDS011;67715;46.170;6.140;2023-04-03T12:42:01;3.75;;;2.45;;
78416;SDS011;67715;46.170;6.140;2023-04-03T12:44:40;3.13;;;2.50;;
78416;SDS011;67715;46.170;6.140;2023-04-03T12:50:01;3.13;;;2.50;;
78416;SDS011;67715;46.170;6.140;2023-04-03T12:52:33;3.20;;;2.40;;
78416;SDS011;67715;46.170;6.140;2023-04-03T12:55:02;3.58;;;2.53;;
78416;SDS011;67715;46.170;6.140;2023-04-03T12:57:29;3.67;;;2.20;;
78416;SDS011;67715;46.170;6.140;2023-04-03T12:59:57;3.35;;;2.33;;
78416;SDS011;67715;46.170;6.140;2023-04-03T13:04:51;4.70;;;2.50;;
78416;SDS011;67715;46.170;6.140;2023-04-03T13:07:28;2.90;;;2.50;;
78416;SDS011;67715;46.170;6.140;2023-04-03T13:09:59;4.80;;;2.30;;
78416;SDS011;67715;46.170;6.140;2023-04-03T13:12:51;3.55;;;2.60;;
78416;SDS011;67715;46.170;6.140;2023-04-03T13:15:23;3.97;;;2.63;;
78416;SDS011;67715;46.170;6.140;2023-04-03T13:17:52;3.13;;;2.22;;
78416;SDS011;67715;46.170;6.140;2023-04-03T13:20:23;3.35;;;1.92;;
78416;SDS011;67715;46.170;6.140;2023-04-03T13:23:06;3.85;;;2.67;;
78416;SDS011;67715;46.170;6.140;2023-04-03T13:25:34;3.47;;;2.20;;
78416;SDS011;67715;46.170;6.140;2023-04-03T13:28:02;2.83;;;2.28;;
78416;SDS011;67715;46.170;6.140;2023-04-03T13:30:30;3.40;;;2.40;;
78416;SDS011;67715;46.170;6.140;2023-04-03T13:32:58;3.13;;;2.03;;
78416;SDS011;67715;46.170;6.140;2023-04-03T13:35:33;4.40;;;2.40;;
78416;SDS011;67715;46.170;6.140;2023-04-03T13:38:05;4.75;;;2.70;;
78416;SDS011;67715;46.170;6.140;2023-04-03T13:40:32;4.03;;;2.70;;
78416;SDS011;67715;46.170;6.140;2023-04-03T13:43:16;5.90;;;3.00;;
78416;SDS011;67715;46.170;6.140;2023-04-03T13:53:41;3.78;;;3.00;;
78416;SDS011;67715;46.170;6.140;2023-04-03T13:56:19;4.97;;;3.00;;
78416;SDS011;67715;46.170;6.140;2023-04-03T13:58:56;3.33;;;2.60;;
78416;SDS011;67715;46.170;6.140;2023-04-03T14:01:22;3.08;;;2.20;;
78416;SDS011;67715;46.170;6.140;2023-04-03T14:04:31;3.65;;;2.72;;
78416;SDS011;67715;46.170;6.140;2023-04-03T14:06:39;3.22;;;2.30;;
78416;SDS011;67715;46.170;6.140;2023-04-03T14:09:04;3.53;;;2.80;;
78416;SDS011;67715;46.170;6.140;2023-04-03T14:11:30;3.95;;;2.17;;
78416;SDS011;67715;46.170;6.140;2023-04-03T14:13:56;3.40;;;2.45;;
78416;SDS011;67715;46.170;6.140;2023-04-03T14:16:24;4.40;;;2.60;;
78416;SDS011;67715;46.170;6.140;2023-04-03T14:18:52;3.22;;;2.45;;
78416;SDS011;67715;46.170;6.140;2023-04-03T14:21:18;4.05;;;2.60;;
78416;SDS011;67715;46.170;6.140;2023-04-03T14:23:44;2.70;;;2.10;;
78416;SDS011;67715;46.170;6.140;2023-04-03T14:26:18;3.22;;;2.30;;
78416;SDS011;67715;46.170;6.140;2023-04-03T14:28:46;2.75;;;2.25;;
78416;SDS011;67715;46.170;6.140;2023-04-03T14:31:13;3.10;;;2.40;;
78416;SDS011;67715;46.170;6.140;2023-04-03T14:33:39;2.95;;;2.55;;
78416;SDS011;67715;46.170;6.140;2023-04-03T14:36:10;4.28;;;2.53;;
78416;SDS011;67715;46.170;6.140;2023-04-03T14:38:39;3.70;;;2.42;;
78416;SDS011;67715;46.170;6.140;2023-04-03T14:41:06;3.58;;;2.55;;
78416;SDS011;67715;46.170;6.140;2023-04-03T14:43:31;4.85;;;2.10;;
78416;SDS011;67715;46.170;6.140;2023-04-03T14:45:56;3.67;;;2.60;;
78416;SDS011;67715;46.170;6.140;2023-04-03T14:48:23;3.60;;;2.70;;
78416;SDS011;67715;46.170;6.140;2023-04-03T14:50:50;3.55;;;2.58;;
78416;SDS011;67715;46.170;6.140;2023-04-03T14:53:16;3.83;;;2.67;;
78416;SDS011;67715;46.170;6.140;2023-04-03T14:55:46;3.55;;;2.53;;
78416;SDS011;67715;46.170;6.140;2023-04-03T14:58:16;4.15;;;2.50;;
78416;SDS011;67715;46.170;6.140;2023-04-03T15:00:43;3.75;;;2.20;;
78416;SDS011;67715;46.170;6.140;2023-04-03T15:03:13;3.35;;;2.42;;
78416;SDS011;67715;46.170;6.140;2023-04-03T15:05:42;2.85;;;2.55;;
78416;SDS011;67715;46.170;6.140;2023-04-03T15:08:12;2.97;;;2.25;;
78416;SDS011;67715;46.170;6.140;2023-04-03T15:10:43;3.20;;;2.60;;
78416;SDS011;67715;46.170;6.140;2023-04-03T15:13:08;2.70;;;2.20;;
78416;SDS011;67715;46.170;6.140;2023-04-03T15:15:35;3.20;;;2.17;;
78416;SDS011;67715;46.170;6.140;2023-04-03T15:18:01;3.08;;;2.40;;
78416;SDS011;67715;46.170;6.140;2023-04-03T15:20:27;3.25;;;2.00;;
78416;SDS011;67715;46.170;6.140;2023-04-03T15:22:55;2.88;;;1.95;;
78416;SDS011;67715;46.170;6.140;2023-04-03T15:25:21;2.70;;;2.20;;
78416;SDS011;67715;46.170;6.140;2023-04-03T15:27:46;3.50;;;2.38;;
78416;SDS011;67715;46.170;6.140;2023-04-03T15:30:16;3.00;;;2.38;;
78416;SDS011;67715;46.170;6.140;2023-04-03T15:32:43;2.80;;;1.90;;
78416;SDS011;67715;46.170;6.140;2023-04-03T15:35:09;2.67;;;2.30;;
78416;SDS011;67715;46.170;6.140;2023-04-03T15:37:34;2.70;;;2.17;;
78416;SDS011;67715;46.170;6.140;2023-04-03T15:40:00;3.58;;;2.45;;
78416;SDS011;67715;46.170;6.140;2023-04-03T15:42:25;2.97;;;2.20;;
78416;SDS011;67715;46.170;6.140;2023-04-03T15:44:50;2.83;;;2.43;;
78416;SDS011;67715;46.170;6.140;2023-04-03T15:47:16;5.57;;;2.20;;
78416;SDS011;67715;46.170;6.140;2023-04-03T15:49:41;3.55;;;2.55;;
78416;SDS011;67715;46.170;6.140;2023-04-03T15:52:07;3.65;;;2.38;;
78416;SDS011;67715;46.170;6.140;2023-04-03T15:54:32;3.00;;;2.20;;
78416;SDS011;67715;46.170;6.140;2023-04-03T15:56:57;5.07;;;1.97;;
78416;SDS011;67715;46.170;6.140;2023-04-03T15:59:23;2.20;;;1.70;;
78416;SDS011;67715;46.170;6.140;2023-04-03T16:01:48;2.55;;;1.98;;
78416;SDS011;67715;46.170;6.140;2023-04-03T16:04:15;2.80;;;2.10;;
78416;SDS011;67715;46.170;6.140;2023-04-03T16:06:41;4.28;;;2.08;;
78416;SDS011;67715;46.170;6.140;2023-04-03T16:09:06;2.88;;;2.15;;
78416;SDS011;67715;46.170;6.140;2023-04-03T16:11:32;3.08;;;2.08;;
78416;SDS011;67715;46.170;6.140;2023-04-03T16:13:59;2.75;;;1.98;;
78416;SDS011;67715;46.170;6.140;2023-04-03T16:16:25;7.00;;;2.53;;
78416;SDS011;67715;46.170;6.140;2023-04-03T16:18:52;2.42;;;1.98;;
78416;SDS011;67715;46.170;6.140;2023-04-03T16:21:18;8.32;;;2.55;;
78416;SDS011;67715;46.170;6.140;2023-04-03T16:23:44;2.75;;;2.40;;
78416;SDS011;67715;46.170;6.140;2023-04-03T16:26:09;4.72;;;1.95;;
78416;SDS011;67715;46.170;6.140;2023-04-03T16:28:35;3.10;;;2.40;;
78416;SDS011;67715;46.170;6.140;2023-04-03T16:31:00;2.93;;;2.07;;
78416;SDS011;67715;46.170;6.140;2023-04-03T16:33:26;2.90;;;1.80;;
78416;SDS011;67715;46.170;6.140;2023-04-03T16:35:51;2.83;;;2.20;;
78416;SDS011;67715;46.170;6.140;2023-04-03T16:38:17;2.30;;;1.90;;
78416;SDS011;67715;46.170;6.140;2023-04-03T16:40:43;2.83;;;1.80;;
78416;SDS011;67715;46.170;6.140;2023-04-03T16:43:09;3.20;;;2.10;;